Time;durP1;ratioP1;P1;durP2;ratioP2;P2;SDS_P1;SDS_P2;PMS_P1;PMS_P2;Temp;Humidity;BMP_temperature;BMP_pressure;BME280_temperature;BME280_humidity;BME280_pressure;Samples;Min_cycle;Max_cycle;Signal;HPM_P1;HPM_P2
2022/08/01 00:01:51;;;;;;;5.18;3.60;;;;;;;;;;5110008;28;20028;-63
2022/08/01 00:04:17;;;;;;;4.68;3.15;;;;;;;;;;5110781;28;20035;-63
2022/08/01 00:06:43;;;;;;;5.78;3.22;;;;;;;;;;5109893;28;20028;-63
2022/08/01 00:09:09;;;;;;;5.13;3.55;;;;;;;;;;5111253;28;20403;-63
2022/08/01 00:12:42;;;;;;;5.13;3.13;;;;;;;;;;5111528;27;20477;-64
2022/08/01 00:15:09;;;;;;;4.95;3.35;;;;;;;;;;5111328;28;20016;-62
2022/08/01 00:19:47;;;;;;;6.78;3.65;;;;;;;;;;5111610;27;20978;-64
2022/08/01 00:22:13;;;;;;;5.70;3.47;;;;;;;;;;5111288;28;20107;-62
2022/08/01 00:24:39;;;;;;;5.72;3.65;;;;;;;;;;5110766;28;20059;-61
2022/08/01 00:27:05;;;;;;;5.47;3.53;;;;;;;;;;5111194;28;20092;-64
2022/08/01 00:29:31;;;;;;;6.70;3.75;;;;;;;;;;5111134;28;20024;-61
2022/08/01 00:31:58;;;;;;;5.07;3.30;;;;;;;;;;5110939;28;20395;-64
2022/08/01 00:34:24;;;;;;;5.13;3.75;;;;;;;;;;5111069;28;20057;-62
2022/08/01 00:36:50;;;;;;;4.97;3.28;;;;;;;;;;5111135;28;20031;-62
2022/08/01 00:39:16;;;;;;;5.60;3.65;;;;;;;;;;5109294;28;20121;-62
2022/08/01 00:41:42;;;;;;;4.85;3.58;;;;;;;;;;5109653;28;20020;-62
2022/08/01 00:44:08;;;;;;;5.45;3.25;;;;;;;;;;5110846;28;20024;-63
2022/08/01 00:46:35;;;;;;;5.13;3.45;;;;;;;;;;5110508;28;20023;-63
2022/08/01 00:50:27;;;;;;;6.63;3.67;;;;;;;;;;5111585;27;20401;-63
2022/08/01 00:54:49;;;;;;;4.57;3.00;;;;;;;;;;5111379;27;20109;-63
2022/08/01 00:58:55;;;;;;;5.75;3.38;;;;;;;;;;5111762;27;20416;-61
2022/08/01 01:01:21;;;;;;;4.38;3.33;;;;;;;;;;5109990;28;20036;-61
2022/08/01 01:03:51;;;;;;;5.57;3.60;;;;;;;;;;5111309;28;20012;-62
2022/08/01 01:06:41;;;;;;;4.97;2.92;;;;;;;;;;5110977;27;20468;-62
2022/08/01 01:09:16;;;;;;;5.13;3.00;;;;;;;;;;5111307;28;20502;-62
2022/08/01 01:11:42;;;;;;;6.40;3.33;;;;;;;;;;5111236;28;20019;-62
2022/08/01 01:14:11;;;;;;;4.55;2.85;;;;;;;;;;5110870;28;20353;-62
2022/08/01 01:16:38;;;;;;;4.72;3.40;;;;;;;;;;5111410;28;20379;-63
2022/08/01 01:19:05;;;;;;;4.72;3.00;;;;;;;;;;5111110;28;20443;-63
2022/08/01 01:21:51;;;;;;;4.90;3.20;;;;;;;;;;5111162;27;20927;-61
2022/08/01 01:25:41;;;;;;;6.07;3.78;;;;;;;;;;5111310;27;20485;-63
2022/08/01 01:29:04;;;;;;;6.05;3.35;;;;;;;;;;5110957;27;20831;-61
2022/08/01 01:33:15;;;;;;;5.72;3.45;;;;;;;;;;5111742;27;20453;-61
2022/08/01 01:38:23;;;;;;;5.85;3.72;;;;;;;;;;5111510;27;20420;-62
2022/08/01 01:40:51;;;;;;;4.78;2.92;;;;;;;;;;5111342;28;20028;-62
2022/08/01 01:43:17;;;;;;;4.82;3.45;;;;;;;;;;5109507;28;20388;-63
2022/08/01 01:46:56;;;;;;;4.85;3.47;;;;;;;;;;5112097;27;20388;-62
2022/08/01 01:50:25;;;;;;;4.38;3.15;;;;;;;;;;5090815;27;20413;-62
2022/08/01 01:53:15;;;;;;;5.97;3.35;;;;;;;;;;5112121;27;20461;-62
2022/08/01 01:55:43;;;;;;;5.25;3.30;;;;;;;;;;5110892;28;20107;-63
2022/08/01 01:58:12;;;;;;;5.75;3.35;;;;;;;;;;5111187;28;20102;-62
2022/08/01 02:01:22;;;;;;;4.47;3.15;;;;;;;;;;5111326;27;20933;-62
2022/08/01 02:03:49;;;;;;;4.43;2.83;;;;;;;;;;5109611;28;20395;-62
2022/08/01 02:06:16;;;;;;;5.40;3.55;;;;;;;;;;5111197;28;20020;-61
2022/08/01 02:11:17;;;;;;;5.15;3.08;;;;;;;;;;5050656;27;20409;-61
2022/08/01 02:13:29;;;;;;;5.15;2.90;;;;;;;;;;5050642;28;20446;-62
2022/08/01 02:16:18;;;;;;;3.60;2.60;;;;;;;;;;5111064;27;20384;-62
2022/08/01 02:20:49;;;;;;;5.70;3.13;;;;;;;;;;5111397;27;20469;-62
2022/08/01 02:23:16;;;;;;;4.20;2.72;;;;;;;;;;5109606;28;20027;-62
2022/08/01 02:27:25;;;;;;;3.63;2.50;;;;;;;;;;5111732;27;20919;-62
2022/08/01 02:30:01;;;;;;;3.47;2.60;;;;;;;;;;5111253;28;20484;-62
2022/08/01 02:32:31;;;;;;;5.47;3.10;;;;;;;;;;5109570;28;20061;-62
2022/08/01 02:38:04;;;;;;;4.53;2.83;;;;;;;;;;5070879;28;20415;-62
2022/08/01 02:40:33;;;;;;;3.97;2.75;;;;;;;;;;5070782;28;20377;-62
2022/08/01 02:43:00;;;;;;;3.78;2.70;;;;;;;;;;5070672;28;20025;-62
2022/08/01 02:49:10;;;;;;;4.72;2.30;;;;;;;;;;5111443;27;20416;-61
2022/08/01 02:52:33;;;;;;;4.53;2.67;;;;;;;;;;5110922;27;20416;-61
2022/08/01 02:55:00;;;;;;;5.03;3.00;;;;;;;;;;5111385;28;20089;-62
2022/08/01 02:57:26;;;;;;;5.00;3.60;;;;;;;;;;5127043;28;20024;-63
2022/08/01 03:03:04;;;;;;;5.15;3.30;;;;;;;;;;5152872;27;20655;-62
2022/08/01 03:05:32;;;;;;;6.85;3.90;;;;;;;;;;5131448;28;20057;-62
2022/08/01 03:07:59;;;;;;;6.07;3.72;;;;;;;;;;5131781;28;20020;-62
2022/08/01 03:10:27;;;;;;;5.28;3.85;;;;;;;;;;5131667;28;20028;-63
2022/08/01 03:12:54;;;;;;;6.85;3.78;;;;;;;;;;5131243;28;20023;-62
2022/08/01 03:17:16;;;;;;;6.13;3.40;;;;;;;;;;5111841;27;20474;-62
2022/08/01 03:20:21;;;;;;;6.10;3.95;;;;;;;;;;5111543;27;20416;-62
2022/08/01 03:22:51;;;;;;;5.63;3.90;;;;;;;;;;5127105;28;20059;-61
2022/08/01 03:29:38;;;;;;;5.20;3.50;;;;;;;;;;5112117;27;20420;-62
2022/08/01 03:34:05;;;;;;;5.03;3.17;;;;;;;;;;5111058;27;20473;-61
2022/08/01 03:38:19;;;;;;;5.55;3.67;;;;;;;;;;5112033;27;20423;-62
2022/08/01 03:41:20;;;;;;;4.93;3.05;;;;;;;;;;5111508;27;20412;-61
2022/08/01 03:46:22;;;;;;;5.13;3.30;;;;;;;;;;5111464;27;20416;-62
2022/08/01 03:48:49;;;;;;;9.35;4.00;;;;;;;;;;5110832;28;20042;-62
2022/08/01 03:53:02;;;;;;;6.30;4.00;;;;;;;;;;5071537;28;20415;-64
2022/08/01 03:56:23;;;;;;;5.95;3.55;;;;;;;;;;5111073;27;20416;-61
2022/08/01 04:00:41;;;;;;;4.63;2.88;;;;;;;;;;5111675;27;20457;-63
2022/08/01 04:03:08;;;;;;;4.47;3.40;;;;;;;;;;5110908;28;20035;-62
2022/08/01 04:05:35;;;;;;;5.05;3.17;;;;;;;;;;5111540;28;20020;-62
2022/08/01 04:09:55;;;;;;;6.50;3.60;;;;;;;;;;5111035;27;20316;-61
2022/08/01 04:15:29;;;;;;;6.05;2.88;;;;;;;;;;5111766;27;20481;-61
2022/08/01 04:19:20;;;;;;;5.03;2.97;;;;;;;;;;5111522;27;20420;-61
2022/08/01 04:21:46;;;;;;;5.40;2.92;;;;;;;;;;5111267;28;20055;-62
2022/08/01 04:24:18;;;;;;;4.53;2.70;;;;;;;;;;5126628;28;20375;-62
2022/08/01 04:26:45;;;;;;;5.45;2.80;;;;;;;;;;5126959;28;20502;-62
2022/08/01 04:29:25;;;;;;;3.97;2.80;;;;;;;;;;5112179;27;20457;-61
2022/08/01 04:33:54;;;;;;;4.07;2.65;;;;;;;;;;5111617;27;20492;-62
2022/08/01 04:39:57;;;;;;;5.97;3.30;;;;;;;;;;5111619;27;20416;-62
2022/08/01 04:44:50;;;;;;;4.47;2.70;;;;;;;;;;5110985;27;20476;-65
2022/08/01 04:47:17;;;;;;;11.57;3.42;;;;;;;;;;5111244;28;20028;-64
2022/08/01 04:49:45;;;;;;;8.15;3.13;;;;;;;;;;5111177;28;20383;-63
2022/08/01 04:52:12;;;;;;;6.50;3.10;;;;;;;;;;5110801;28;20023;-64
2022/08/01 04:54:38;;;;;;;4.90;2.45;;;;;;;;;;5111272;28;20031;-65
2022/08/01 04:57:05;;;;;;;3.97;2.65;;;;;;;;;;5111099;28;20028;-65
2022/08/01 04:59:56;;;;;;;4.47;2.90;;;;;;;;;;5111015;27;20505;-66
2022/08/01 05:02:23;;;;;;;5.68;2.90;;;;;;;;;;5112119;28;20407;-64
2022/08/01 05:04:49;;;;;;;5.22;2.80;;;;;;;;;;5111215;28;20069;-64
2022/08/01 05:08:13;;;;;;;4.53;2.80;;;;;;;;;;5111357;27;20420;-64
2022/08/01 05:10:39;;;;;;;2.92;2.28;;;;;;;;;;5127110;28;20103;-64
2022/08/01 05:13:06;;;;;;;4.93;2.50;;;;;;;;;;5126737;28;20096;-65
2022/08/01 05:15:32;;;;;;;4.15;2.20;;;;;;;;;;5111203;28;20353;-64
2022/08/01 05:17:58;;;;;;;5.38;2.60;;;;;;;;;;5111102;28;20016;-65
2022/08/01 05:20:24;;;;;;;4.70;2.53;;;;;;;;;;5110794;28;20024;-64
2022/08/01 05:22:50;;;;;;;3.97;2.22;;;;;;;;;;5111081;28;20028;-64
2022/08/01 05:25:53;;;;;;;3.50;1.98;;;;;;;;;;5111310;27;20419;-63
2022/08/01 05:28:19;;;;;;;4.10;2.15;;;;;;;;;;5110907;28;20039;-63
2022/08/01 05:33:20;;;;;;;4.20;1.95;;;;;;;;;;5111480;27;20814;-65
2022/08/01 05:38:00;;;;;;;2.45;1.80;;;;;;;;;;5111285;27;20420;-64
2022/08/01 05:41:44;;;;;;;3.72;2.08;;;;;;;;;;5111208;27;20427;-64
2022/08/01 05:45:12;;;;;;;5.82;1.92;;;;;;;;;;5111778;27;20485;-66
2022/08/01 05:47:38;;;;;;;6.13;2.40;;;;;;;;;;5109716;28;20507;-63
2022/08/01 05:50:38;;;;;;;4.93;2.22;;;;;;;;;;5112151;27;20458;-63
2022/08/01 05:53:05;;;;;;;3.65;1.80;;;;;;;;;;5111232;28;20031;-63
2022/08/01 05:55:31;;;;;;;3.47;2.13;;;;;;;;;;5110836;28;20073;-64
2022/08/01 05:57:57;;;;;;;4.40;2.05;;;;;;;;;;5111166;28;20020;-64
2022/08/01 06:00:23;;;;;;;4.00;1.85;;;;;;;;;;5111131;28;20419;-64
2022/08/01 06:04:18;;;;;;;3.15;1.92;;;;;;;;;;5111580;27;20488;-63
2022/08/01 06:08:05;;;;;;;2.35;1.40;;;;;;;;;;5111348;27;20404;-64
2022/08/01 06:11:37;;;;;;;2.53;1.50;;;;;;;;;;5071477;28;20423;-64
2022/08/01 06:14:03;;;;;;;3.10;1.80;;;;;;;;;;5069445;28;20116;-64
2022/08/01 06:16:29;;;;;;;3.72;1.60;;;;;;;;;;5070171;28;20086;-64
2022/08/01 06:20:34;;;;;;;2.47;1.50;;;;;;;;;;5112162;27;20458;-64
2022/08/01 06:23:00;;;;;;;4.40;1.80;;;;;;;;;;5110868;28;20024;-64
2022/08/01 06:25:27;;;;;;;2.75;1.58;;;;;;;;;;5111162;28;20091;-64
2022/08/01 06:29:35;;;;;;;3.08;1.55;;;;;;;;;;5111667;27;20972;-65
2022/08/01 06:32:01;;;;;;;5.10;2.25;;;;;;;;;;5109964;28;20487;-64
2022/08/01 06:34:27;;;;;;;4.78;1.85;;;;;;;;;;5109940;28;20131;-64
2022/08/01 06:41:00;;;;;;;4.43;2.00;;;;;;;;;;5111428;27;20399;-65
2022/08/01 06:44:19;;;;;;;3.42;2.05;;;;;;;;;;5070393;28;20419;-63
2022/08/01 06:46:45;;;;;;;3.60;2.10;;;;;;;;;;5070824;28;20025;-64
2022/08/01 06:51:17;;;;;;;4.68;2.05;;;;;;;;;;5111492;27;20822;-66
2022/08/01 06:53:43;;;;;;;5.88;2.47;;;;;;;;;;5111291;28;20107;-65
2022/08/01 06:56:10;;;;;;;4.45;2.17;;;;;;;;;;5109954;28;20052;-66
2022/08/01 06:58:36;;;;;;;3.25;1.38;;;;;;;;;;5110982;28;20089;-65
2022/08/01 07:01:05;;;;;;;3.10;1.77;;;;;;;;;;5111471;28;20054;-65
2022/08/01 07:03:32;;;;;;;4.65;1.67;;;;;;;;;;5111080;28;20103;-65
2022/08/01 07:05:58;;;;;;;5.47;1.85;;;;;;;;;;5110847;28;20023;-65
2022/08/01 07:09:46;;;;;;;4.05;2.00;;;;;;;;;;5111950;27;20473;-64
2022/08/01 07:12:21;;;;;;;2.30;1.58;;;;;;;;;;5111340;27;20753;-64
2022/08/01 07:16:07;;;;;;;7.13;2.13;;;;;;;;;;5051400;28;21010;-64
2022/08/01 07:18:33;;;;;;;6.78;2.30;;;;;;;;;;5050776;28;20021;-64
2022/08/01 07:21:00;;;;;;;4.72;2.22;;;;;;;;;;5049564;28;20440;-63
2022/08/01 07:23:26;;;;;;;10.10;2.30;;;;;;;;;;5050628;28;20108;-63
2022/08/01 07:25:52;;;;;;;4.55;2.03;;;;;;;;;;5048916;28;20049;-63
2022/08/01 07:28:18;;;;;;;4.18;1.95;;;;;;;;;;5050592;28;20536;-65
2022/08/01 07:30:44;;;;;;;4.75;2.35;;;;;;;;;;5050999;28;20025;-65
2022/08/01 07:33:11;;;;;;;4.20;2.00;;;;;;;;;;5050466;28;20025;-65
2022/08/01 07:35:38;;;;;;;2.72;1.70;;;;;;;;;;5049155;28;20087;-65
2022/08/01 07:38:05;;;;;;;6.43;1.90;;;;;;;;;;5050427;28;20052;-65
2022/08/01 07:40:31;;;;;;;6.18;2.08;;;;;;;;;;5050004;28;20079;-65
2022/08/01 07:42:58;;;;;;;5.18;2.10;;;;;;;;;;5050526;28;20029;-65
2022/08/01 07:48:50;;;;;;;6.70;2.28;;;;;;;;;;5110866;27;20416;-64
2022/08/01 07:51:16;;;;;;;14.52;2.50;;;;;;;;;;5110536;28;20020;-63
2022/08/01 07:53:42;;;;;;;5.32;2.28;;;;;;;;;;5111471;28;20024;-63
2022/08/01 07:56:09;;;;;;;6.05;2.40;;;;;;;;;;5108595;28;20028;-64
2022/08/01 08:00:36;;;;;;;7.10;2.10;;;;;;;;;;5110822;27;20490;-63
2022/08/01 08:03:02;;;;;;;4.03;2.30;;;;;;;;;;5109351;28;20028;-63
2022/08/01 08:05:28;;;;;;;3.78;1.92;;;;;;;;;;5111278;28;20021;-62
2022/08/01 08:07:55;;;;;;;4.47;1.90;;;;;;;;;;5110605;28;20058;-63
2022/08/01 08:10:21;;;;;;;5.93;2.20;;;;;;;;;;5111233;28;20050;-63
2022/08/01 08:12:48;;;;;;;3.67;1.98;;;;;;;;;;5110946;28;20043;-63
2022/08/01 08:15:14;;;;;;;9.93;2.25;;;;;;;;;;5109207;28;20020;-63
2022/08/01 08:17:40;;;;;;;4.20;2.10;;;;;;;;;;5110760;28;20019;-63
2022/08/01 08:20:07;;;;;;;3.58;1.55;;;;;;;;;;5110806;28;20032;-64
2022/08/01 08:25:57;;;;;;;4.70;1.90;;;;;;;;;;5111525;27;20416;-63
2022/08/01 08:28:23;;;;;;;3.08;2.08;;;;;;;;;;5111286;28;20032;-63
2022/08/01 08:30:49;;;;;;;5.95;2.03;;;;;;;;;;5110832;28;20537;-63
2022/08/01 08:34:45;;;;;;;5.15;2.30;;;;;;;;;;5111573;27;20413;-64
2022/08/01 08:37:12;;;;;;;4.72;2.17;;;;;;;;;;5109624;28;20031;-64
2022/08/01 08:39:38;;;;;;;7.60;2.55;;;;;;;;;;5109837;28;20035;-64
2022/08/01 08:43:12;;;;;;;3.40;1.85;;;;;;;;;;5111322;27;20518;-62
2022/08/01 08:45:38;;;;;;;4.85;1.92;;;;;;;;;;5109949;28;20023;-63
2022/08/01 08:48:06;;;;;;;3.75;1.52;;;;;;;;;;5111166;28;20026;-64
2022/08/01 08:50:32;;;;;;;3.28;1.48;;;;;;;;;;5110727;28;20093;-64
2022/08/01 08:53:01;;;;;;;2.58;1.58;;;;;;;;;;5103238;28;20066;-63
2022/08/01 08:55:28;;;;;;;4.22;1.98;;;;;;;;;;5091013;28;20034;-64
2022/08/01 08:57:55;;;;;;;2.85;1.50;;;;;;;;;;5090309;28;20103;-64
2022/08/01 09:00:21;;;;;;;3.97;2.13;;;;;;;;;;5091158;28;20118;-63
2022/08/01 09:03:19;;;;;;;3.78;1.70;;;;;;;;;;5060945;28;20437;-62
2022/08/01 09:05:46;;;;;;;3.03;1.63;;;;;;;;;;5050361;28;20037;-63
2022/08/01 09:08:12;;;;;;;3.42;1.60;;;;;;;;;;5050698;28;20100;-64
2022/08/01 09:10:39;;;;;;;2.38;1.50;;;;;;;;;;5050116;28;20374;-63
2022/08/01 09:13:12;;;;;;;6.18;2.00;;;;;;;;;;5048822;28;20075;-63
2022/08/01 09:15:39;;;;;;;4.18;1.58;;;;;;;;;;5049141;28;20426;-63
2022/08/01 09:19:51;;;;;;;8.80;2.05;;;;;;;;;;5110636;27;20310;-64
2022/08/01 09:22:20;;;;;;;2.45;1.50;;;;;;;;;;5111386;28;20078;-62
2022/08/01 09:25:16;;;;;;;3.05;1.30;;;;;;;;;;5111127;28;20065;-63
2022/08/01 09:27:43;;;;;;;4.93;1.55;;;;;;;;;;5094004;28;20031;-63
2022/08/01 09:30:13;;;;;;;2.70;1.60;;;;;;;;;;5110973;28;20027;-63
2022/08/01 09:32:54;;;;;;;3.03;1.65;;;;;;;;;;5109264;28;20047;-63
2022/08/01 09:35:24;;;;;;;3.38;1.70;;;;;;;;;;5110858;28;20030;-63
2022/08/01 09:37:50;;;;;;;3.33;1.48;;;;;;;;;;5109362;28;20031;-63
2022/08/01 09:40:16;;;;;;;2.45;1.40;;;;;;;;;;5110654;28;20020;-63
2022/08/01 09:42:43;;;;;;;2.83;1.45;;;;;;;;;;5110927;28;20488;-63
2022/08/01 09:45:09;;;;;;;2.97;1.45;;;;;;;;;;5110642;28;20467;-63
2022/08/01 09:47:39;;;;;;;3.30;2.03;;;;;;;;;;5110308;28;20028;-62
2022/08/01 09:50:05;;;;;;;3.33;1.83;;;;;;;;;;5110507;28;20038;-63
2022/08/01 09:52:32;;;;;;;2.97;1.27;;;;;;;;;;5110540;28;20031;-63
2022/08/01 09:55:00;;;;;;;3.58;1.52;;;;;;;;;;5110123;28;20440;-63
2022/08/01 09:57:28;;;;;;;4.43;1.75;;;;;;;;;;5109056;28;20031;-62
2022/08/01 09:59:55;;;;;;;1.75;1.23;;;;;;;;;;5095906;28;20028;-63
2022/08/01 10:02:27;;;;;;;3.78;1.42;;;;;;;;;;5088280;28;20069;-63
2022/08/01 10:04:54;;;;;;;2.42;1.50;;;;;;;;;;5089627;28;20186;-63
2022/08/01 10:07:21;;;;;;;2.33;1.50;;;;;;;;;;5088626;28;20039;-63
2022/08/01 10:09:48;;;;;;;2.35;1.20;;;;;;;;;;5090020;28;20388;-63
2022/08/01 10:12:18;;;;;;;2.33;1.20;;;;;;;;;;5088717;28;20059;-64
2022/08/01 10:14:46;;;;;;;2.60;1.10;;;;;;;;;;5088200;28;20028;-63
2022/08/01 10:17:14;;;;;;;4.10;1.33;;;;;;;;;;5088500;28;20027;-63
2022/08/01 10:19:41;;;;;;;2.83;1.50;;;;;;;;;;5107939;28;20042;-63
2022/08/01 10:22:15;;;;;;;2.22;1.50;;;;;;;;;;5089260;28;20024;-63
2022/08/01 10:24:42;;;;;;;5.57;1.52;;;;;;;;;;5090295;28;20024;-63
2022/08/01 10:27:09;;;;;;;2.67;1.30;;;;;;;;;;5108300;28;20016;-63
2022/08/01 10:29:41;;;;;;;2.20;1.20;;;;;;;;;;5101927;28;20365;-64
2022/08/01 10:32:09;;;;;;;3.05;1.73;;;;;;;;;;5095174;28;20051;-63
2022/08/01 10:34:36;;;;;;;1.98;1.63;;;;;;;;;;5096646;28;20369;-64
2022/08/01 10:37:02;;;;;;;2.72;1.20;;;;;;;;;;5095905;28;20028;-64
2022/08/01 10:39:29;;;;;;;2.25;1.33;;;;;;;;;;5096177;28;20035;-63
2022/08/01 10:41:56;;;;;;;3.42;1.38;;;;;;;;;;5096206;28;20020;-63
2022/08/01 10:44:26;;;;;;;3.05;1.25;;;;;;;;;;5095714;28;20103;-63
2022/08/01 10:46:55;;;;;;;3.17;1.60;;;;;;;;;;5096081;28;20380;-63
2022/08/01 10:49:23;;;;;;;4.65;1.83;;;;;;;;;;5096042;28;20206;-63
2022/08/01 10:51:49;;;;;;;3.58;1.75;;;;;;;;;;5095561;28;20031;-64
2022/08/01 10:54:15;;;;;;;2.90;1.13;;;;;;;;;;5095970;28;20016;-64
2022/08/01 10:56:48;;;;;;;4.90;1.60;;;;;;;;;;5095477;28;20024;-64
2022/08/01 10:59:27;;;;;;;2.08;1.15;;;;;;;;;;5096087;28;20047;-64
2022/08/01 11:02:00;;;;;;;2.28;1.30;;;;;;;;;;5096101;28;20073;-64
2022/08/01 11:04:34;;;;;;;2.83;1.15;;;;;;;;;;5095367;28;20028;-64
2022/08/01 11:07:05;;;;;;;3.85;1.60;;;;;;;;;;5096013;28;20459;-64
2022/08/01 11:09:38;;;;;;;4.45;1.52;;;;;;;;;;5077536;28;20024;-64
2022/08/01 11:12:08;;;;;;;3.08;1.10;;;;;;;;;;5095305;28;20020;-64
2022/08/01 11:14:44;;;;;;;2.72;1.25;;;;;;;;;;5095519;28;20052;-64
2022/08/01 11:17:28;;;;;;;3.50;1.23;;;;;;;;;;5095669;28;20024;-64
2022/08/01 11:20:10;;;;;;;5.05;1.48;;;;;;;;;;5076931;28;20032;-64
2022/08/01 11:22:55;;;;;;;7.25;1.65;;;;;;;;;;5095351;28;20058;-64
2022/08/01 11:25:21;;;;;;;2.92;1.60;;;;;;;;;;5095190;28;20493;-64
2022/08/01 11:27:47;;;;;;;2.42;1.25;;;;;;;;;;5095409;28;20047;-64
2022/08/01 11:30:13;;;;;;;1.48;1.20;;;;;;;;;;5095320;28;20099;-64
2022/08/01 11:32:50;;;;;;;2.47;1.48;;;;;;;;;;5094840;28;20471;-64
2022/08/01 11:35:16;;;;;;;3.25;1.45;;;;;;;;;;5095238;28;20020;-64
2022/08/01 11:37:42;;;;;;;2.03;1.33;;;;;;;;;;5095428;28;20563;-64
2022/08/01 11:40:14;;;;;;;2.30;1.17;;;;;;;;;;5094706;28;20039;-63
2022/08/01 11:42:40;;;;;;;2.72;1.02;;;;;;;;;;5076199;28;20026;-64
2022/08/01 11:45:09;;;;;;;1.73;1.10;;;;;;;;;;5094983;28;20541;-63
2022/08/01 11:47:48;;;;;;;3.40;1.00;;;;;;;;;;5094526;28;20044;-63
2022/08/01 11:50:34;;;;;;;1.92;1.20;;;;;;;;;;5095133;28;20048;-63
2022/08/01 11:53:07;;;;;;;2.47;1.10;;;;;;;;;;5094740;28;20480;-63
2022/08/01 11:55:37;;;;;;;2.70;1.13;;;;;;;;;;5094812;28;20020;-63
2022/08/01 11:58:05;;;;;;;1.95;1.08;;;;;;;;;;5076516;28;20085;-64
2022/08/01 12:00:31;;;;;;;2.22;1.20;;;;;;;;;;5094367;28;20021;-64
2022/08/01 12:02:59;;;;;;;3.22;1.25;;;;;;;;;;5094619;28;20028;-64
2022/08/01 12:05:26;;;;;;;1.65;1.25;;;;;;;;;;5094593;28;20376;-64
2022/08/01 12:07:53;;;;;;;1.33;0.88;;;;;;;;;;5094147;28;20044;-64
2022/08/01 12:10:20;;;;;;;1.88;0.95;;;;;;;;;;5094851;28;20097;-64
2022/08/01 12:12:48;;;;;;;3.17;1.77;;;;;;;;;;5094738;28;20035;-64
2022/08/01 12:15:14;;;;;;;1.38;0.95;;;;;;;;;;5094028;28;20100;-64
2022/08/01 12:17:42;;;;;;;2.88;1.20;;;;;;;;;;5094345;28;20496;-64
2022/08/01 12:20:12;;;;;;;2.90;1.40;;;;;;;;;;5094541;28;20024;-64
2022/08/01 12:22:39;;;;;;;3.13;1.17;;;;;;;;;;5075810;28;20020;-64
2022/08/01 12:25:12;;;;;;;2.20;0.95;;;;;;;;;;5094217;28;20468;-64
2022/08/01 12:27:39;;;;;;;1.50;0.98;;;;;;;;;;5076047;28;20031;-64
2022/08/01 12:30:09;;;;;;;1.90;0.98;;;;;;;;;;5093760;28;20472;-64
2022/08/01 12:32:37;;;;;;;1.35;0.93;;;;;;;;;;5094158;28;20028;-64
2022/08/01 12:35:05;;;;;;;2.50;1.00;;;;;;;;;;5094437;28;20082;-65
2022/08/01 12:37:32;;;;;;;3.15;1.17;;;;;;;;;;5075381;28;20035;-64
2022/08/01 12:39:59;;;;;;;1.70;1.00;;;;;;;;;;5075907;28;20100;-64
2022/08/01 12:42:25;;;;;;;2.47;0.88;;;;;;;;;;5093658;28;20024;-65
2022/08/01 12:44:52;;;;;;;3.55;1.15;;;;;;;;;;5093787;28;20089;-65
2022/08/01 12:47:20;;;;;;;1.38;0.95;;;;;;;;;;5094022;28;20077;-64
2022/08/01 12:49:47;;;;;;;1.88;1.08;;;;;;;;;;5093613;28;20034;-64
2022/08/01 12:52:13;;;;;;;1.83;0.90;;;;;;;;;;5093886;28;20375;-64
2022/08/01 12:54:58;;;;;;;2.47;1.00;;;;;;;;;;5093763;28;20024;-64
2022/08/01 12:57:24;;;;;;;5.03;1.17;;;;;;;;;;5093253;28;20024;-65
2022/08/01 12:59:53;;;;;;;1.35;0.80;;;;;;;;;;5093691;28;20020;-65
2022/08/01 13:02:19;;;;;;;1.60;0.90;;;;;;;;;;5093852;28;20016;-65
2022/08/01 13:04:52;;;;;;;4.15;1.10;;;;;;;;;;5093532;28;20093;-64
2022/08/01 13:07:18;;;;;;;1.00;0.88;;;;;;;;;;5094172;28;20096;-63
2022/08/01 13:09:51;;;;;;;1.98;1.10;;;;;;;;;;5075516;28;20388;-64
2022/08/01 13:12:17;;;;;;;5.30;1.05;;;;;;;;;;5093157;28;20091;-64
2022/08/01 13:14:43;;;;;;;3.50;1.17;;;;;;;;;;5075448;28;20039;-64
2022/08/01 13:17:09;;;;;;;1.63;0.80;;;;;;;;;;5075407;28;20064;-63
2022/08/01 13:19:46;;;;;;;1.80;0.80;;;;;;;;;;5092823;28;20074;-64
2022/08/01 13:22:13;;;;;;;1.85;1.05;;;;;;;;;;5093416;28;20013;-64
2022/08/01 13:24:39;;;;;;;1.35;0.93;;;;;;;;;;5093365;28;20039;-64
2022/08/01 13:27:05;;;;;;;1.10;1.00;;;;;;;;;;5093434;28;20494;-64
2022/08/01 13:29:32;;;;;;;1.10;0.80;;;;;;;;;;5075252;28;20062;-64
2022/08/01 13:31:58;;;;;;;2.67;1.00;;;;;;;;;;5092959;28;20020;-64
2022/08/01 13:34:50;;;;;;;1.98;0.80;;;;;;;;;;5093331;28;20031;-64
2022/08/01 13:37:16;;;;;;;2.35;1.02;;;;;;;;;;5088794;28;20396;-64
2022/08/01 13:39:47;;;;;;;5.55;1.23;;;;;;;;;;5092928;28;20085;-64
2022/08/01 13:42:16;;;;;;;1.42;0.98;;;;;;;;;;5093289;28;20013;-64
2022/08/01 13:44:45;;;;;;;1.73;0.90;;;;;;;;;;5093215;28;20028;-64
2022/08/01 13:47:11;;;;;;;3.42;1.20;;;;;;;;;;5092924;28;20486;-64
2022/08/01 13:49:37;;;;;;;1.20;0.90;;;;;;;;;;5093175;28;20028;-64
2022/08/01 13:52:05;;;;;;;2.67;1.15;;;;;;;;;;5093500;28;20036;-63
2022/08/01 13:54:32;;;;;;;1.90;1.23;;;;;;;;;;5092800;28;20044;-64
2022/08/01 13:56:58;;;;;;;1.00;0.90;;;;;;;;;;5075008;28;20032;-64
2022/08/01 13:59:24;;;;;;;1.98;1.05;;;;;;;;;;5075036;28;20047;-64
2022/08/01 14:01:50;;;;;;;2.67;1.10;;;;;;;;;;5092744;28;20372;-64
2022/08/01 14:04:16;;;;;;;4.22;1.40;;;;;;;;;;5093377;28;20028;-63
2022/08/01 14:06:42;;;;;;;1.50;1.00;;;;;;;;;;5096848;28;20025;-64
2022/08/01 14:09:09;;;;;;;0.85;0.70;;;;;;;;;;5096823;28;20031;-63
2022/08/01 14:11:35;;;;;;;4.18;1.10;;;;;;;;;;5096845;28;20130;-63
2022/08/01 14:14:01;;;;;;;1.88;1.00;;;;;;;;;;5096747;28;20121;-64
2022/08/01 14:16:27;;;;;;;2.10;1.10;;;;;;;;;;5078457;28;20364;-64
2022/08/01 14:18:53;;;;;;;2.03;1.00;;;;;;;;;;5078384;28;20047;-64
2022/08/01 14:21:19;;;;;;;1.50;1.27;;;;;;;;;;5096214;28;20095;-63
2022/08/01 14:23:46;;;;;;;2.75;1.33;;;;;;;;;;5096705;28;20032;-64
2022/08/01 14:26:12;;;;;;;3.45;1.33;;;;;;;;;;5096526;28;20033;-64
2022/08/01 14:28:39;;;;;;;2.75;1.20;;;;;;;;;;5096178;28;20032;-64
2022/08/01 14:31:06;;;;;;;2.17;1.13;;;;;;;;;;5096753;28;20488;-63
2022/08/01 14:33:32;;;;;;;2.20;1.45;;;;;;;;;;5096415;28;20387;-64
2022/08/01 14:35:58;;;;;;;2.08;1.13;;;;;;;;;;5095953;28;20013;-63
2022/08/01 14:38:24;;;;;;;1.88;1.02;;;;;;;;;;5096243;28;20469;-64
2022/08/01 14:40:51;;;;;;;2.65;1.52;;;;;;;;;;5078009;28;20028;-63
2022/08/01 14:43:20;;;;;;;2.25;1.30;;;;;;;;;;5095952;28;20408;-64
2022/08/01 14:45:49;;;;;;;2.33;1.30;;;;;;;;;;5096133;28;20422;-63
2022/08/01 14:48:16;;;;;;;4.28;1.02;;;;;;;;;;5077934;28;20020;-64
2022/08/01 14:50:42;;;;;;;1.90;1.30;;;;;;;;;;5095815;28;20031;-64
2022/08/01 14:53:08;;;;;;;1.85;1.35;;;;;;;;;;5096016;28;20388;-64
2022/08/01 14:55:34;;;;;;;2.58;1.60;;;;;;;;;;5095994;28;20023;-64
2022/08/01 14:58:00;;;;;;;4.85;1.77;;;;;;;;;;5095498;28;20099;-64
2022/08/01 15:00:27;;;;;;;3.53;1.83;;;;;;;;;;5095911;28;20024;-64
2022/08/01 15:02:53;;;;;;;2.15;1.30;;;;;;;;;;5077752;28;20024;-64
2022/08/01 15:05:19;;;;;;;2.28;1.27;;;;;;;;;;5095386;28;20019;-64
2022/08/01 15:07:45;;;;;;;4.55;1.98;;;;;;;;;;5095792;28;20492;-64
2022/08/01 15:10:11;;;;;;;4.40;1.40;;;;;;;;;;5077181;28;20020;-64
2022/08/01 15:12:37;;;;;;;1.83;1.30;;;;;;;;;;5095713;28;20357;-64
2022/08/01 15:15:04;;;;;;;3.28;1.27;;;;;;;;;;5077407;28;20020;-64
2022/08/01 15:17:34;;;;;;;2.00;1.13;;;;;;;;;;5076776;28;20487;-64
2022/08/01 15:20:01;;;;;;;1.63;1.20;;;;;;;;;;5095819;28;20102;-64
2022/08/01 15:22:28;;;;;;;2.95;1.13;;;;;;;;;;5095479;28;20552;-64
2022/08/01 15:24:55;;;;;;;1.52;0.90;;;;;;;;;;5095003;28;20039;-63
2022/08/01 15:27:21;;;;;;;3.47;1.35;;;;;;;;;;5095401;28;20024;-63
2022/08/01 15:29:48;;;;;;;3.58;1.35;;;;;;;;;;5077105;28;20073;-64
2022/08/01 15:32:14;;;;;;;3.40;1.08;;;;;;;;;;5094850;28;20039;-64
2022/08/01 15:34:41;;;;;;;1.42;1.05;;;;;;;;;;5095186;28;20028;-64
2022/08/01 15:37:07;;;;;;;2.72;1.10;;;;;;;;;;5095444;28;20031;-63
2022/08/01 15:39:34;;;;;;;2.65;1.20;;;;;;;;;;5094664;28;20136;-64
2022/08/01 15:42:01;;;;;;;3.42;1.10;;;;;;;;;;5095178;28;20067;-64
2022/08/01 15:44:27;;;;;;;2.92;1.02;;;;;;;;;;5095339;28;20070;-64
2022/08/01 15:46:53;;;;;;;3.72;1.20;;;;;;;;;;5094581;28;20496;-63
2022/08/01 15:49:21;;;;;;;1.48;1.20;;;;;;;;;;5094934;28;20031;-63
2022/08/01 15:51:49;;;;;;;3.13;1.23;;;;;;;;;;5094836;28;20027;-63
2022/08/01 15:54:15;;;;;;;2.42;1.20;;;;;;;;;;5094430;28;20532;-63
2022/08/01 15:56:41;;;;;;;3.28;1.30;;;;;;;;;;5076608;28;20066;-65
2022/08/01 15:59:07;;;;;;;1.40;1.10;;;;;;;;;;5094861;28;20036;-63
2022/08/01 16:01:33;;;;;;;2.13;1.30;;;;;;;;;;5094301;28;20020;-63
2022/08/01 16:04:00;;;;;;;4.45;1.20;;;;;;;;;;5076430;28;20080;-63
2022/08/01 16:06:26;;;;;;;1.88;1.17;;;;;;;;;;5094199;28;20024;-63
2022/08/01 16:08:52;;;;;;;2.53;1.35;;;;;;;;;;5094552;28;20024;-63
2022/08/01 16:11:19;;;;;;;1.80;1.17;;;;;;;;;;5094465;28;20051;-64
2022/08/01 16:13:47;;;;;;;2.50;1.17;;;;;;;;;;5094317;28;20028;-64
2022/08/01 16:16:15;;;;;;;2.47;1.30;;;;;;;;;;5095065;28;20101;-64
2022/08/01 16:18:41;;;;;;;5.25;1.48;;;;;;;;;;5094067;28;20040;-63
2022/08/01 16:21:10;;;;;;;4.68;1.40;;;;;;;;;;5093835;28;20039;-64
2022/08/01 16:23:36;;;;;;;3.58;1.38;;;;;;;;;;5076062;28;20380;-63
2022/08/01 16:26:02;;;;;;;2.35;1.30;;;;;;;;;;5094162;28;20031;-63
2022/08/01 16:28:29;;;;;;;2.45;1.45;;;;;;;;;;5093312;28;20024;-64
2022/08/01 16:30:55;;;;;;;3.30;1.50;;;;;;;;;;5094160;28;20024;-63
2022/08/01 16:33:22;;;;;;;3.22;1.70;;;;;;;;;;5094079;28;20073;-64
2022/08/01 16:35:48;;;;;;;3.72;1.50;;;;;;;;;;5075355;28;20032;-64